createdAt,value
2018-07-20T00:01:40.315Z,15.87
2018-07-20T00:04:09.009Z,15.87
2018-07-20T00:06:37.661Z,15.87
2018-07-20T00:09:08.277Z,15.90
2018-07-20T00:11:37.127Z,15.92
2018-07-20T00:14:05.907Z,15.90
2018-07-20T00:16:34.640Z,15.87
2018-07-20T00:19:03.360Z,15.86
2018-07-20T00:21:32.214Z,15.83
2018-07-20T00:24:00.995Z,15.83
2018-07-20T00:26:29.710Z,15.81
2018-07-20T00:28:58.361Z,15.87
2018-07-20T00:31:27.095Z,15.87
2018-07-20T00:33:56.783Z,15.83
2018-07-20T00:36:25.538Z,15.79
2018-07-20T00:38:54.282Z,15.72
2018-07-20T00:41:23.000Z,15.46
2018-07-20T00:43:51.680Z,15.69
2018-07-20T00:46:20.396Z,15.69
2018-07-20T00:48:49.187Z,15.65
2018-07-20T00:51:17.848Z,15.40
2018-07-20T00:53:46.609Z,15.51
2018-07-20T00:56:15.415Z,15.40
2018-07-20T00:58:44.286Z,15.40
2018-07-20T01:01:13.047Z,15.38
2018-07-20T01:03:41.820Z,15.30
2018-07-20T01:06:10.559Z,15.27
2018-07-20T01:08:39.290Z,15.22
2018-07-20T01:11:08.108Z,15.26
2018-07-20T01:13:36.965Z,15.31
2018-07-20T01:16:05.705Z,15.37
2018-07-20T01:18:35.529Z,15.33
2018-07-20T01:21:04.415Z,15.28
2018-07-20T01:23:33.080Z,15.26
2018-07-20T01:26:02.485Z,15.25
2018-07-20T01:28:31.178Z,15.25
2018-07-20T01:31:00.001Z,15.21
2018-07-20T01:33:28.774Z,15.15
2018-07-20T01:35:57.412Z,15.09
2018-07-20T01:38:26.125Z,15.08
2018-07-20T01:40:54.884Z,15.11
2018-07-20T01:43:23.533Z,15.16
2018-07-20T01:45:52.223Z,15.16
2018-07-20T01:48:21.053Z,15.12
2018-07-20T01:50:49.739Z,15.04
2018-07-20T01:53:18.413Z,14.96
2018-07-20T01:55:47.908Z,14.88
2018-07-20T01:58:16.633Z,14.84
2018-07-20T02:00:45.337Z,14.83
2018-07-20T02:03:14.064Z,14.79
2018-07-20T02:05:42.845Z,14.77
2018-07-20T02:08:11.555Z,14.74
2018-07-20T02:10:40.369Z,14.68
2018-07-20T02:13:09.161Z,14.66
2018-07-20T02:15:37.971Z,14.78
2018-07-20T02:18:06.946Z,14.85
2018-07-20T02:20:35.731Z,14.88
2018-07-20T02:23:04.580Z,14.92
2018-07-20T02:25:33.378Z,14.95
2018-07-20T02:28:02.045Z,14.91
2018-07-20T02:30:31.739Z,14.78
2018-07-20T02:33:00.505Z,14.70
2018-07-20T02:35:29.285Z,14.61
2018-07-20T02:37:58.077Z,14.58
2018-07-20T02:40:27.018Z,14.54
2018-07-20T02:42:55.967Z,14.49
2018-07-20T02:45:24.834Z,14.44
2018-07-20T02:47:53.597Z,14.37
2018-07-20T02:50:22.269Z,14.24
2018-07-20T02:52:51.050Z,14.17
2018-07-20T02:55:20.035Z,14.11
2018-07-20T02:57:48.797Z,14.01
2018-07-20T03:00:17.776Z,13.98
2018-07-20T03:02:46.507Z,13.94
2018-07-20T03:05:15.273Z,13.89
2018-07-20T03:07:44.013Z,13.94
2018-07-20T03:10:12.744Z,14.04
2018-07-20T03:12:41.455Z,14.11
2018-07-20T03:15:10.242Z,14.15
2018-07-20T03:17:38.963Z,14.12
2018-07-20T03:20:07.683Z,14.11
2018-07-20T03:22:36.387Z,14.08
2018-07-20T03:25:06.134Z,14.04
2018-07-20T03:27:34.813Z,14.03
2018-07-20T03:30:03.440Z,14.01
2018-07-20T03:32:32.150Z,14.00
2018-07-20T03:35:00.889Z,13.97
2018-07-20T03:37:29.501Z,13.97
2018-07-20T03:39:58.245Z,13.96
2018-07-20T03:42:27.026Z,13.97
2018-07-20T03:44:55.809Z,14.09
2018-07-20T03:47:24.478Z,14.23
2018-07-20T03:49:53.156Z,14.42
2018-07-20T03:52:21.790Z,14.62
2018-07-20T03:54:50.531Z,14.76
2018-07-20T03:57:19.303Z,14.89
2018-07-20T03:59:48.035Z,15.08
2018-07-20T04:02:16.646Z,15.35
2018-07-20T04:04:46.206Z,15.71
2018-07-20T04:07:15.629Z,15.98
2018-07-20T04:09:44.319Z,16.40
2018-07-20T04:12:12.975Z,16.77
2018-07-20T04:14:41.681Z,17.15
2018-07-20T04:17:10.487Z,17.38
2018-07-20T04:19:39.111Z,17.51
2018-07-20T04:22:07.787Z,17.87
2018-07-20T04:24:36.395Z,18.25
2018-07-20T04:27:05.096Z,18.52
2018-07-20T04:29:33.909Z,18.42
2018-07-20T04:32:02.665Z,18.88
2018-07-20T04:34:31.425Z,18.62
2018-07-20T04:37:00.167Z,18.61
2018-07-20T04:39:28.780Z,18.69
2018-07-20T04:41:57.624Z,14.96
2018-07-20T04:44:26.430Z,19.45
2018-07-20T04:46:55.232Z,19.60
2018-07-20T04:49:24.138Z,19.80
2018-07-20T04:51:52.786Z,19.72
2018-07-20T04:54:21.463Z,18.57
2018-07-20T04:56:51.969Z,17.97
2018-07-20T04:59:20.679Z,17.69
2018-07-20T05:01:50.528Z,17.48
2018-07-20T05:04:19.226Z,17.38
2018-07-20T05:06:47.868Z,17.76
2018-07-20T05:09:17.552Z,17.49
2018-07-20T05:11:46.345Z,17.65
2018-07-20T05:14:15.645Z,17.82
2018-07-20T05:16:44.391Z,17.71
2018-07-20T05:19:13.260Z,18.50
2018-07-20T05:21:41.988Z,18.05
2018-07-20T05:24:10.804Z,18.47
2018-07-20T05:26:39.450Z,19.83
2018-07-20T05:29:08.140Z,21.21
2018-07-20T05:31:36.966Z,21.51
2018-07-20T05:34:05.824Z,21.66
2018-07-20T05:36:34.633Z,21.86
2018-07-20T05:39:03.675Z,22.01
2018-07-20T05:41:32.404Z,22.53
2018-07-20T05:44:01.607Z,22.37
2018-07-20T05:46:30.413Z,22.43
2018-07-20T05:49:00.011Z,22.80
2018-07-20T05:51:28.775Z,22.26
2018-07-20T05:53:57.738Z,22.03
2018-07-20T05:56:26.428Z,22.74
2018-07-20T05:58:55.250Z,23.26
2018-07-20T06:01:24.052Z,23.67
2018-07-20T06:03:52.904Z,22.13
2018-07-20T06:06:21.597Z,22.10
2018-07-20T06:08:50.332Z,23.94
2018-07-20T06:11:19.103Z,24.97
2018-07-20T06:13:48.591Z,25.86
2018-07-20T06:16:18.166Z,26.15
2018-07-20T06:18:46.886Z,26.68
2018-07-20T06:21:15.653Z,26.52
2018-07-20T06:23:44.428Z,26.12
2018-07-20T06:26:13.153Z,24.24
2018-07-20T06:28:41.811Z,22.80
2018-07-20T06:31:10.565Z,22.55
2018-07-20T06:33:39.200Z,23.36
2018-07-20T06:36:07.922Z,23.29
2018-07-20T06:38:36.598Z,24.32
2018-07-20T06:41:05.663Z,24.80
2018-07-20T06:43:34.455Z,25.33
2018-07-20T06:46:03.060Z,26.21
2018-07-20T06:48:31.620Z,27.32
2018-07-20T06:51:00.196Z,27.39
2018-07-20T06:53:28.726Z,27.46
2018-07-20T06:55:57.419Z,28.03
2018-07-20T06:58:26.969Z,27.89
2018-07-20T07:00:55.758Z,27.63
2018-07-20T07:03:24.406Z,28.67
2018-07-20T07:05:53.056Z,27.63
2018-07-20T07:08:21.946Z,27.48
2018-07-20T07:10:50.837Z,27.87
2018-07-20T07:13:19.819Z,28.86
2018-07-20T07:15:48.557Z,29.23
2018-07-20T07:18:17.468Z,29.56
2018-07-20T07:20:46.242Z,29.78
2018-07-20T07:23:14.987Z,30.00
2018-07-20T07:25:43.806Z,30.00
2018-07-20T07:28:12.605Z,30.14
2018-07-20T07:30:41.349Z,31.28
2018-07-20T07:33:10.125Z,32.13
2018-07-20T07:35:38.876Z,33.27
2018-07-20T07:38:07.606Z,34.25
2018-07-20T07:40:36.412Z,34.47
2018-07-20T07:43:05.221Z,35.28
2018-07-20T07:45:34.204Z,33.70
2018-07-20T07:48:02.976Z,33.14
2018-07-20T07:50:31.783Z,33.86
2018-07-20T07:53:00.620Z,32.77
2018-07-20T07:55:29.442Z,32.96
2018-07-20T07:57:59.220Z,32.16
2018-07-20T08:00:27.937Z,32.75
2018-07-20T08:02:56.747Z,35.01
2018-07-20T08:05:25.650Z,35.36
2018-07-20T08:07:54.852Z,34.89
2018-07-20T08:10:23.542Z,34.14
2018-07-20T08:12:52.430Z,35.43
2018-07-20T08:15:21.270Z,35.34
2018-07-20T08:17:49.975Z,33.88
2018-07-20T08:20:18.708Z,32.16
2018-07-20T08:22:47.525Z,35.49
2018-07-20T08:25:16.416Z,36.38
2018-07-20T08:27:45.021Z,36.17
2018-07-20T08:30:13.936Z,36.82
2018-07-20T08:32:42.640Z,35.96
2018-07-20T08:35:11.452Z,36.52
2018-07-20T08:37:40.248Z,36.10
2018-07-20T08:40:09.007Z,35.34
2018-07-20T08:42:37.856Z,36.88
2018-07-20T08:45:06.884Z,36.30
2018-07-20T08:47:35.730Z,36.29
2018-07-20T08:50:04.930Z,36.92
2018-07-20T08:52:34.094Z,36.56
2018-07-20T08:55:02.855Z,36.23
2018-07-20T08:57:32.361Z,37.05
2018-07-20T09:00:01.334Z,37.25
2018-07-20T09:02:30.259Z,37.26
2018-07-20T09:04:58.973Z,37.48
2018-07-20T09:07:27.674Z,37.77
2018-07-20T09:09:56.628Z,36.54
2018-07-20T09:12:25.562Z,35.80
2018-07-20T09:14:54.320Z,36.70
2018-07-20T09:17:23.102Z,36.35
2018-07-20T09:19:51.758Z,37.22
2018-07-20T09:22:20.588Z,36.71
2018-07-20T09:24:49.419Z,37.70
2018-07-20T09:27:18.403Z,38.74
2018-07-20T09:29:47.853Z,37.86
2018-07-20T09:32:16.668Z,35.65
2018-07-20T09:34:45.557Z,35.21
2018-07-20T09:37:14.493Z,34.09
2018-07-20T09:39:43.215Z,31.74
2018-07-20T09:42:12.198Z,31.72
2018-07-20T09:44:41.015Z,33.69
2018-07-20T09:47:09.753Z,33.05
2018-07-20T09:49:38.472Z,34.65
2018-07-20T09:52:06.988Z,34.38
2018-07-20T09:54:35.614Z,35.33
2018-07-20T09:57:04.149Z,36.12
2018-07-20T09:59:32.813Z,36.79
2018-07-20T10:02:01.353Z,37.23
2018-07-20T10:04:29.935Z,36.58
2018-07-20T10:06:58.498Z,35.22
2018-07-20T10:09:27.028Z,34.53
2018-07-20T10:11:55.644Z,33.16
2018-07-20T10:14:24.296Z,32.31
2018-07-20T10:16:52.891Z,31.69
2018-07-20T10:19:21.505Z,31.42
2018-07-20T10:21:50.038Z,31.19
2018-07-20T10:24:18.607Z,30.84
2018-07-20T10:26:47.131Z,30.77
2018-07-20T10:29:15.706Z,30.51
2018-07-20T10:31:44.241Z,30.73
2018-07-20T10:34:12.817Z,30.64
2018-07-20T10:36:41.414Z,30.56
2018-07-20T10:39:10.699Z,31.86
2018-07-20T10:41:39.223Z,32.39
2018-07-20T10:44:07.826Z,33.66
2018-07-20T10:46:36.573Z,35.17
2018-07-20T10:49:05.435Z,35.39
2018-07-20T10:51:34.016Z,35.19
2018-07-20T10:54:02.580Z,36.65
2018-07-20T10:56:31.147Z,36.36
2018-07-20T10:58:59.662Z,35.78
2018-07-20T11:01:28.291Z,35.63
2018-07-20T11:03:56.776Z,34.79
2018-07-20T11:06:25.328Z,34.16
2018-07-20T11:08:53.875Z,33.95
2018-07-20T11:11:22.429Z,33.38
2018-07-20T11:13:51.002Z,34.34
2018-07-20T11:16:19.572Z,35.92
2018-07-20T11:18:48.119Z,35.55
2018-07-20T11:21:16.710Z,35.35
2018-07-20T11:23:45.242Z,35.48
2018-07-20T11:26:13.793Z,33.41
2018-07-20T11:28:42.428Z,33.73
2018-07-20T11:31:11.003Z,34.56
2018-07-20T11:33:39.534Z,32.73
2018-07-20T11:36:08.091Z,32.65
2018-07-20T11:38:36.629Z,32.45
2018-07-20T11:41:05.188Z,32.45
2018-07-20T11:43:33.755Z,32.85
2018-07-20T11:46:02.290Z,32.86
2018-07-20T11:48:30.877Z,33.11
2018-07-20T11:50:59.471Z,33.55
2018-07-20T11:53:28.041Z,33.74
2018-07-20T11:55:56.580Z,32.60
2018-07-20T11:58:25.155Z,32.24
2018-07-20T12:00:53.689Z,31.27
2018-07-20T12:03:22.244Z,31.52
2018-07-20T12:05:50.795Z,31.32
2018-07-20T12:08:19.366Z,30.73
2018-07-20T12:10:48.488Z,30.97
2018-07-20T12:13:17.054Z,30.99
2018-07-20T12:15:45.609Z,31.16
2018-07-20T12:18:14.284Z,31.04
2018-07-20T12:20:42.857Z,31.23
2018-07-20T12:23:11.420Z,31.05
2018-07-20T12:25:39.960Z,31.26
2018-07-20T12:28:08.574Z,31.42
2018-07-20T12:30:37.094Z,30.90
2018-07-20T12:33:05.663Z,30.37
2018-07-20T12:35:34.237Z,30.05
2018-07-20T12:38:02.794Z,30.14
2018-07-20T12:40:31.392Z,30.75
2018-07-20T12:42:59.936Z,31.17
2018-07-20T12:45:28.476Z,31.23
2018-07-20T12:47:57.039Z,31.23
2018-07-20T12:50:25.607Z,31.47
2018-07-20T12:52:54.262Z,31.72
2018-07-20T12:55:22.833Z,31.29
2018-07-20T12:57:51.367Z,30.97
2018-07-20T13:00:19.916Z,31.21
2018-07-20T13:02:48.475Z,31.35
2018-07-20T13:05:17.029Z,30.81
2018-07-20T13:07:45.559Z,30.23
2018-07-20T13:10:14.153Z,29.91
2018-07-20T13:12:42.681Z,30.14
2018-07-20T13:15:11.262Z,29.87
2018-07-20T13:17:39.808Z,29.92
2018-07-20T13:20:08.390Z,29.97
2018-07-20T13:22:36.961Z,30.34
2018-07-20T13:25:05.556Z,30.49
2018-07-20T13:27:34.092Z,30.63
2018-07-20T13:30:02.641Z,30.59
2018-07-20T13:32:31.226Z,30.59
2018-07-20T13:34:59.994Z,30.82
2018-07-20T13:37:28.568Z,30.70
2018-07-20T13:39:57.123Z,30.32
2018-07-20T13:42:25.737Z,30.50
2018-07-20T13:44:54.321Z,30.91
2018-07-20T13:47:22.877Z,31.11
2018-07-20T13:49:51.449Z,31.14
2018-07-20T13:52:20.028Z,31.15
2018-07-20T13:54:48.586Z,30.83
2018-07-20T13:57:17.215Z,30.93
2018-07-20T13:59:45.758Z,31.07
2018-07-20T14:02:14.315Z,31.28
2018-07-20T14:04:42.858Z,31.11
2018-07-20T14:07:12.127Z,31.12
2018-07-20T14:09:40.674Z,31.04
2018-07-20T14:12:09.277Z,30.93
2018-07-20T14:14:37.829Z,30.76
2018-07-20T14:17:06.482Z,30.78
2018-07-20T14:19:35.014Z,30.91
2018-07-20T14:22:03.595Z,31.14
2018-07-20T14:24:32.157Z,31.39
2018-07-20T14:27:00.713Z,31.72
2018-07-20T14:29:29.326Z,31.89
2018-07-20T14:31:57.893Z,32.16
2018-07-20T14:34:26.581Z,32.20
2018-07-20T14:36:55.116Z,32.01
2018-07-20T14:39:23.675Z,31.51
2018-07-20T14:41:52.203Z,31.29
2018-07-20T14:44:20.775Z,31.52
2018-07-20T14:46:49.389Z,31.79
2018-07-20T14:49:17.938Z,31.92
2018-07-20T14:51:46.469Z,31.94
2018-07-20T14:54:15.085Z,31.79
2018-07-20T14:56:43.625Z,31.70
2018-07-20T14:59:12.230Z,31.77
2018-07-20T15:01:40.785Z,31.83
2018-07-20T15:04:09.381Z,31.64
2018-07-20T15:06:37.991Z,31.41
2018-07-20T15:09:09.541Z,31.21
2018-07-20T15:11:38.994Z,31.06
2018-07-20T15:14:07.782Z,30.86
2018-07-20T15:16:36.505Z,30.88
2018-07-20T15:19:05.473Z,31.12
2018-07-20T15:21:34.301Z,31.28
2018-07-20T15:24:03.477Z,31.17
2018-07-20T15:26:32.498Z,31.09
2018-07-20T15:29:01.537Z,31.15
2018-07-20T15:31:30.454Z,31.18
2018-07-20T15:33:59.189Z,31.26
2018-07-20T15:36:28.012Z,31.07
2018-07-20T15:38:56.733Z,31.12
2018-07-20T15:41:25.461Z,31.03
2018-07-20T15:43:54.219Z,30.72
2018-07-20T15:46:24.049Z,30.51
2018-07-20T15:48:52.699Z,30.34
2018-07-20T15:51:31.577Z,30.12
2018-07-20T15:53:49.873Z,30.03
2018-07-20T15:56:19.146Z,30.13
2018-07-20T15:58:47.700Z,29.99
2018-07-20T16:01:16.274Z,29.97
2018-07-20T16:03:44.796Z,29.76
2018-07-20T16:06:13.407Z,29.85
2018-07-20T16:08:42.090Z,29.99
2018-07-20T16:11:10.644Z,29.90
2018-07-20T16:13:39.212Z,29.94
2018-07-20T16:16:07.771Z,30.08
2018-07-20T16:18:36.305Z,30.00
2018-07-20T16:21:04.872Z,29.98
2018-07-20T16:23:33.433Z,29.84
2018-07-20T16:26:02.054Z,29.68
2018-07-20T16:28:30.626Z,29.61
2018-07-20T16:30:59.160Z,29.56
2018-07-20T16:33:27.791Z,29.60
2018-07-20T16:35:56.341Z,29.62
2018-07-20T16:38:24.893Z,29.68
2018-07-20T16:40:53.484Z,29.75
2018-07-20T16:43:22.091Z,29.77
2018-07-20T16:45:50.663Z,29.83
2018-07-20T16:48:19.209Z,29.73
2018-07-20T16:50:47.745Z,29.70
2018-07-20T16:53:16.436Z,29.66
2018-07-20T16:55:44.973Z,29.61
2018-07-20T16:58:13.581Z,29.58
2018-07-20T17:00:42.068Z,29.56
2018-07-20T17:03:10.625Z,29.48
2018-07-20T17:05:39.182Z,29.36
2018-07-20T17:08:07.736Z,29.18
2018-07-20T17:10:36.289Z,29.09
2018-07-20T17:13:04.891Z,29.05
2018-07-20T17:15:33.687Z,29.01
2018-07-20T17:18:02.224Z,28.97
2018-07-20T17:20:30.802Z,28.83
2018-07-20T17:22:59.333Z,28.76
2018-07-20T17:25:27.955Z,28.67
2018-07-20T17:27:56.566Z,28.59
2018-07-20T17:30:25.118Z,28.46
2018-07-20T17:32:53.652Z,28.30
2018-07-20T17:35:22.230Z,28.22
2018-07-20T17:37:50.752Z,28.05
2018-07-20T17:40:19.337Z,27.95
2018-07-20T17:42:47.876Z,27.89
2018-07-20T17:45:16.514Z,27.79
2018-07-20T17:47:45.029Z,27.68
2018-07-20T17:50:13.553Z,27.67
2018-07-20T17:52:42.094Z,27.66
2018-07-20T17:55:10.636Z,27.63
2018-07-20T17:57:39.176Z,27.60
2018-07-20T18:00:07.802Z,27.48
2018-07-20T18:02:36.404Z,27.38
2018-07-20T18:05:05.169Z,27.26
2018-07-20T18:07:33.713Z,27.22
2018-07-20T18:10:02.227Z,27.19
2018-07-20T18:12:30.789Z,27.09
2018-07-20T18:14:59.298Z,27.03
2018-07-20T18:17:27.843Z,26.97
2018-07-20T18:19:56.377Z,26.91
2018-07-20T18:22:24.915Z,26.81
2018-07-20T18:24:53.477Z,26.74
2018-07-20T18:27:22.117Z,26.66
2018-07-20T18:29:50.575Z,26.62
2018-07-20T18:32:19.164Z,26.58
2018-07-20T18:34:47.735Z,26.50
2018-07-20T18:37:16.300Z,26.42
2018-07-20T18:39:44.834Z,26.31
2018-07-20T18:42:13.417Z,26.19
2018-07-20T18:44:41.960Z,26.08
2018-07-20T18:47:10.537Z,25.99
2018-07-20T18:49:39.361Z,25.88
2018-07-20T18:52:08.169Z,25.82
2018-07-20T18:54:36.813Z,25.74
2018-07-20T18:57:05.625Z,25.66
2018-07-20T18:59:34.483Z,25.57
2018-07-20T19:02:03.150Z,25.48
2018-07-20T19:04:31.806Z,25.42
2018-07-20T19:07:00.657Z,25.38
2018-07-20T19:09:29.485Z,25.32
2018-07-20T19:11:58.198Z,25.26
2018-07-20T19:14:26.882Z,25.19
2018-07-20T19:16:55.576Z,25.13
2018-07-20T19:19:24.444Z,25.13
2018-07-20T19:21:53.312Z,25.08
2018-07-20T19:24:22.026Z,25.02
2018-07-20T19:26:50.640Z,24.97
2018-07-20T19:29:19.465Z,24.94
2018-07-20T19:31:48.234Z,24.88
2018-07-20T19:34:16.909Z,24.84
2018-07-20T19:36:45.879Z,24.85
2018-07-20T19:39:14.721Z,24.82
2018-07-20T19:41:43.566Z,24.64
2018-07-20T19:44:12.300Z,24.56
2018-07-20T19:46:41.127Z,24.50
2018-07-20T19:49:09.976Z,24.63
2018-07-20T19:51:38.693Z,24.63
2018-07-20T19:54:07.488Z,24.52
2018-07-20T19:56:36.246Z,24.39
2018-07-20T19:59:05.240Z,24.27
2018-07-20T20:01:34.025Z,24.21
2018-07-20T20:04:02.796Z,24.11
2018-07-20T20:06:31.549Z,24.00
2018-07-20T20:09:00.384Z,23.96
2018-07-20T20:11:29.271Z,23.95
2018-07-20T20:13:58.172Z,23.85
2018-07-20T20:16:26.979Z,23.73
2018-07-20T20:18:55.733Z,23.63
2018-07-20T20:21:25.375Z,23.54
2018-07-20T20:23:54.850Z,23.53
2018-07-20T20:26:24.384Z,23.47
2018-07-20T20:28:53.215Z,23.42
2018-07-20T20:31:22.509Z,23.40
2018-07-20T20:33:51.327Z,23.36
2018-07-20T20:36:20.174Z,23.28
2018-07-20T20:38:49.097Z,23.21
2018-07-20T20:41:18.148Z,23.16
2018-07-20T20:43:46.860Z,23.12
2018-07-20T20:46:16.689Z,23.08
2018-07-20T20:48:45.406Z,23.06
2018-07-20T20:51:14.365Z,23.00
2018-07-20T20:53:43.278Z,22.98
2018-07-20T20:56:12.182Z,23.00
2018-07-20T20:58:41.314Z,22.97
2018-07-20T21:01:10.102Z,22.93
2018-07-20T21:03:38.966Z,22.89
2018-07-20T21:06:07.807Z,22.89
2018-07-20T21:08:36.643Z,22.98
2018-07-20T21:11:05.584Z,22.96
2018-07-20T21:13:34.400Z,22.94
2018-07-20T21:16:03.206Z,22.88
2018-07-20T21:18:32.097Z,22.81
2018-07-20T21:21:00.767Z,22.73
2018-07-20T21:23:29.612Z,22.72
2018-07-20T21:25:58.375Z,22.69
2018-07-20T21:28:27.117Z,22.67
2018-07-20T21:30:56.096Z,22.68
2018-07-20T21:33:25.043Z,22.60
2018-07-20T21:35:53.755Z,22.57
2018-07-20T21:38:23.646Z,22.45
2018-07-20T21:40:52.405Z,22.36
2018-07-20T21:43:21.127Z,22.32
2018-07-20T21:45:49.829Z,22.33
2018-07-20T21:48:18.509Z,22.26
2018-07-20T21:50:47.202Z,22.23
2018-07-20T21:53:16.238Z,22.19
2018-07-20T21:55:45.139Z,22.21
2018-07-20T21:58:14.049Z,22.28
2018-07-20T22:00:42.943Z,22.31
2018-07-20T22:03:11.686Z,22.33
2018-07-20T22:05:40.602Z,22.01
2018-07-20T22:08:10.084Z,22.22
2018-07-20T22:10:39.035Z,22.19
2018-07-20T22:13:07.792Z,22.11
2018-07-20T22:15:36.528Z,22.08
2018-07-20T22:20:33.028Z,22.15
2018-07-20T22:23:01.807Z,22.19
2018-07-20T22:25:32.112Z,22.19
2018-07-20T22:28:00.879Z,22.13
2018-07-20T22:30:29.827Z,22.12
2018-07-20T22:32:58.639Z,22.03
2018-07-20T22:35:28.405Z,22.05
2018-07-20T22:37:57.096Z,22.11
2018-07-20T22:40:25.974Z,22.15
2018-07-20T22:42:54.728Z,22.15
2018-07-20T22:45:23.673Z,22.11
2018-07-20T22:47:52.701Z,22.09
2018-07-20T22:50:21.391Z,22.06
2018-07-20T22:55:17.827Z,22.06
2018-07-20T22:57:46.680Z,22.06
2018-07-20T23:00:15.392Z,22.04
2018-07-20T23:02:44.237Z,22.03
2018-07-20T23:05:12.920Z,22.03
2018-07-20T23:07:41.632Z,22.03
2018-07-20T23:10:11.623Z,22.03
2018-07-20T23:12:40.336Z,22.01
2018-07-20T23:15:09.085Z,21.99
2018-07-20T23:17:37.760Z,21.97
2018-07-20T23:20:07.416Z,21.92
2018-07-20T23:22:36.215Z,21.88
2018-07-20T23:25:04.980Z,21.84
2018-07-20T23:27:33.601Z,21.80
2018-07-20T23:30:02.395Z,21.77
2018-07-20T23:32:31.206Z,21.71
2018-07-20T23:34:59.868Z,21.65
2018-07-20T23:37:28.514Z,21.59
2018-07-20T23:39:57.291Z,21.56
2018-07-20T23:42:26.968Z,21.51
2018-07-20T23:44:55.630Z,21.45
2018-07-20T23:47:24.387Z,21.42
2018-07-20T23:49:53.270Z,21.40
2018-07-20T23:52:21.928Z,21.34
2018-07-20T23:54:50.766Z,21.31
2018-07-20T23:57:19.463Z,21.28
2018-07-20T23:59:48.396Z,21.22
